Time;durP1;ratioP1;P1;durP2;ratioP2;P2;SDS_P1;SDS_P2;PMS_P1;PMS_P2;Temp;Humidity;BMP_temperature;BMP_pressure;BME280_temperature;BME280_humidity;BME280_pressure;Samples;Min_cycle;Max_cycle;Signal;HPM_P1;HPM_P2
2024/03/04 00:02:01;;;;;;;3.15;2.03;;;;;;;4.79;100.00;91297.56;4756725;30;20051;-80
2024/03/04 00:04:27;;;;;;;7.95;2.20;;;;;;;4.74;100.00;91305.41;4750581;30;20219;-79
2024/03/04 00:06:53;;;;;;;3.75;2.22;;;;;;;4.68;100.00;91303.16;4743699;30;20091;-79
2024/03/04 00:09:19;;;;;;;4.38;2.00;;;;;;;4.60;100.00;91301.97;4758841;30;20161;-78
2024/03/04 00:11:44;;;;;;;6.57;2.63;;;;;;;4.56;100.00;91303.56;4760281;30;20043;-80
2024/03/04 00:14:10;;;;;;;4.40;1.85;;;;;;;4.63;100.00;91301.41;4759483;30;20048;-79
2024/03/04 00:16:36;;;;;;;3.78;1.90;;;;;;;4.61;100.00;91302.72;4751963;30;20052;-79
2024/03/04 00:19:02;;;;;;;4.85;1.80;;;;;;;4.54;100.00;91300.47;4757688;30;20078;-79
2024/03/04 00:21:27;;;;;;;7.18;1.90;;;;;;;4.47;100.00;91300.81;4759967;30;20050;-78
2024/03/04 00:23:54;;;;;;;4.75;2.03;;;;;;;4.42;100.00;91303.47;4750375;30;20047;-79
2024/03/04 00:26:19;;;;;;;3.85;2.40;;;;;;;4.40;100.00;91312.56;4745584;30;20175;-79
2024/03/04 00:28:45;;;;;;;3.40;2.20;;;;;;;4.36;100.00;91300.16;4753574;30;20044;-79
2024/03/04 00:31:12;;;;;;;5.43;2.42;;;;;;;4.32;100.00;91309.53;4766471;30;20122;-79
2024/03/04 00:33:38;;;;;;;3.80;2.40;;;;;;;4.28;100.00;91305.94;4752358;30;20078;-79
2024/03/04 00:36:08;;;;;;;5.07;2.45;;;;;;;4.22;100.00;91290.75;4757981;30;20040;-79
2024/03/04 00:38:33;;;;;;;3.90;2.38;;;;;;;4.21;100.00;91289.19;4757159;30;20115;-79
2024/03/04 00:40:59;;;;;;;3.58;2.22;;;;;;;4.17;100.00;91279.38;4752107;30;20131;-79
2024/03/04 00:43:24;;;;;;;4.30;2.30;;;;;;;4.18;100.00;91280.16;4749375;30;20249;-78
2024/03/04 00:45:50;;;;;;;3.90;2.30;;;;;;;4.16;100.00;91284.81;4757884;30;20123;-79
2024/03/04 00:48:15;;;;;;;2.75;1.90;;;;;;;4.14;100.00;91279.94;4750967;30;20055;-78
2024/03/04 00:50:41;;;;;;;5.43;2.08;;;;;;;4.14;100.00;91272.16;4746746;30;20692;-79
2024/03/04 00:53:07;;;;;;;5.65;1.90;;;;;;;4.15;100.00;91285.88;4757120;30;20056;-79
2024/03/04 00:55:33;;;;;;;4.07;2.25;;;;;;;4.14;100.00;91287.72;4751135;30;20048;-79
2024/03/04 00:57:58;;;;;;;3.10;1.77;;;;;;;4.14;100.00;91302.47;4753140;30;20047;-78
2024/03/04 01:00:24;;;;;;;5.80;1.80;;;;;;;4.16;100.00;91285.59;4759637;30;20040;-79
2024/03/04 01:02:53;;;;;;;4.35;1.90;;;;;;;4.15;100.00;91284.06;4751701;30;20049;-80
2024/03/04 01:05:18;;;;;;;3.78;1.80;;;;;;;4.15;100.00;91291.06;4749148;30;20043;-79
2024/03/04 01:07:44;;;;;;;4.25;1.75;;;;;;;4.18;100.00;91291.28;4759524;30;20461;-80
2024/03/04 01:10:10;;;;;;;7.03;1.80;;;;;;;4.18;100.00;91287.91;4764627;30;20154;-79
2024/03/04 01:12:35;;;;;;;5.32;1.80;;;;;;;4.18;100.00;91275.72;4754611;30;20118;-79
2024/03/04 01:15:01;;;;;;;4.22;1.80;;;;;;;4.17;100.00;91276.03;4750560;30;20055;-79
2024/03/04 01:17:28;;;;;;;2.53;1.40;;;;;;;4.17;100.00;91283.78;4750620;30;20048;-79
2024/03/04 01:19:53;;;;;;;4.05;1.52;;;;;;;4.16;100.00;91282.25;4752317;30;20032;-79
2024/03/04 01:22:19;;;;;;;5.55;2.00;;;;;;;4.19;100.00;91279.13;4757613;30;20044;-79
2024/03/04 01:24:49;;;;;;;4.75;1.58;;;;;;;4.27;100.00;91294.03;4752636;30;20553;-79
2024/03/04 01:27:15;;;;;;;3.13;1.60;;;;;;;4.27;100.00;91288.84;4762486;30;20497;-80
2024/03/04 01:29:44;;;;;;;3.42;1.40;;;;;;;4.35;100.00;91279.72;4757281;30;20023;-79
2024/03/04 01:32:10;;;;;;;4.03;1.70;;;;;;;4.37;100.00;91295.75;4735902;30;20131;-78
2024/03/04 01:34:39;;;;;;;4.47;1.65;;;;;;;4.40;100.00;91302.97;4764531;30;20405;-79
2024/03/04 01:37:09;;;;;;;3.42;1.40;;;;;;;4.43;100.00;91291.28;4755411;30;20039;-79
2024/03/04 01:39:35;;;;;;;3.63;1.50;;;;;;;4.42;100.00;91287.16;4753878;30;20052;-79
2024/03/04 01:42:01;;;;;;;3.53;1.73;;;;;;;4.42;100.00;91281.97;4750514;30;20039;-79
2024/03/04 01:44:38;;;;;;;2.67;1.52;;;;;;;4.43;100.00;91275.72;4749605;30;20040;-79
2024/03/04 01:47:17;;;;;;;4.63;1.50;;;;;;;4.47;100.00;91274.13;4755720;30;20100;-79
2024/03/04 01:49:44;;;;;;;2.40;1.40;;;;;;;4.59;100.00;91261.53;4752225;30;20053;-79
2024/03/04 01:52:11;;;;;;;2.70;1.60;;;;;;;4.59;100.00;91271.88;4750070;30;20052;-79
2024/03/04 01:54:40;;;;;;;2.25;1.42;;;;;;;4.54;100.00;91277.91;4756926;30;20055;-79
2024/03/04 01:57:07;;;;;;;3.20;1.30;;;;;;;4.52;100.00;91292.97;4750915;30;20098;-80
2024/03/04 01:59:36;;;;;;;3.80;1.48;;;;;;;4.48;100.00;91289.41;4757147;30;20039;-79
2024/03/04 02:02:05;;;;;;;5.25;1.60;;;;;;;4.45;100.00;91284.00;4757504;30;20394;-78
2024/03/04 02:04:32;;;;;;;1.90;1.33;;;;;;;4.42;100.00;91287.91;4762541;30;20044;-79
2024/03/04 02:07:00;;;;;;;5.25;1.42;;;;;;;4.38;100.00;91277.31;4751585;30;20501;-79
2024/03/04 02:09:29;;;;;;;2.38;1.40;;;;;;;4.42;100.00;91287.16;4749886;30;20052;-79
2024/03/04 02:11:54;;;;;;;2.65;1.30;;;;;;;4.51;100.00;91293.25;4748852;30;20032;-78
2024/03/04 02:14:20;;;;;;;2.10;1.30;;;;;;;4.68;100.00;91293.53;4755394;30;20313;-79
2024/03/04 02:16:46;;;;;;;4.07;1.58;;;;;;;4.74;100.00;91294.25;4756476;30;20067;-79
2024/03/04 02:19:14;;;;;;;2.63;1.48;;;;;;;4.63;100.00;91288.44;4749427;30;20048;-79
2024/03/04 02:21:50;;;;;;;2.22;1.20;;;;;;;4.56;100.00;91286.19;4749364;30;20046;-79
2024/03/04 02:24:16;;;;;;;3.30;1.55;;;;;;;4.46;100.00;91277.75;4751715;30;20040;-79
2024/03/04 02:26:43;;;;;;;2.55;1.40;;;;;;;4.46;100.00;91277.75;4755994;30;20032;-79
2024/03/04 02:29:10;;;;;;;4.13;1.67;;;;;;;4.46;100.00;91282.94;4746723;30;20050;-78
2024/03/04 02:31:36;;;;;;;5.28;1.55;;;;;;;4.40;100.00;91284.81;4751524;30;20524;-78
2024/03/04 02:34:04;;;;;;;4.22;1.83;;;;;;;4.36;100.00;91294.19;4762245;30;20119;-78
2024/03/04 02:36:31;;;;;;;6.90;1.90;;;;;;;4.31;100.00;91307.97;4751583;30;20032;-79
2024/03/04 02:38:56;;;;;;;4.32;1.60;;;;;;;4.28;100.00;91316.31;4753118;30;20129;-79
2024/03/04 02:41:26;;;;;;;2.95;1.60;;;;;;;4.25;100.00;91313.50;4752185;30;20119;-79
2024/03/04 02:43:51;;;;;;;2.90;1.70;;;;;;;4.24;100.00;91312.72;4767673;30;20122;-79
2024/03/04 02:46:18;;;;;;;3.70;1.75;;;;;;;4.19;100.00;91325.75;4758837;30;20040;-79
2024/03/04 02:48:44;;;;;;;3.88;1.50;;;;;;;4.17;100.00;91330.41;4751828;30;20143;-79
2024/03/04 02:51:10;;;;;;;4.47;1.70;;;;;;;4.16;100.00;91336.63;4752109;30;20042;-79
2024/03/04 02:53:36;;;;;;;4.05;1.80;;;;;;;4.13;100.00;91332.00;4759334;30;20497;-78
2024/03/04 02:56:01;;;;;;;3.85;1.90;;;;;;;4.09;100.00;91324.00;4751854;30;20048;-79
2024/03/04 02:58:27;;;;;;;3.15;1.60;;;;;;;4.11;100.00;91316.72;4751784;30;20056;-79
2024/03/04 03:00:53;;;;;;;2.25;1.60;;;;;;;4.13;100.00;91332.00;4737851;30;20068;-79
2024/03/04 03:03:22;;;;;;;6.00;1.60;;;;;;;4.14;100.00;91343.91;4713388;30;20053;-79
2024/03/04 03:05:48;;;;;;;3.80;1.70;;;;;;;4.13;100.00;91332.78;4746494;30;20039;-79
2024/03/04 03:08:14;;;;;;;2.60;1.58;;;;;;;4.11;100.00;91339.28;4747478;30;20036;-79
2024/03/04 03:10:40;;;;;;;5.13;1.70;;;;;;;4.11;100.00;91336.69;4744471;30;20429;-79
2024/03/04 03:13:07;;;;;;;3.03;1.67;;;;;;;4.12;100.00;91340.81;4744131;30;20147;-79
2024/03/04 03:15:35;;;;;;;3.17;1.67;;;;;;;4.14;100.00;91349.88;4742508;30;20106;-79
2024/03/04 03:18:01;;;;;;;2.72;1.58;;;;;;;4.15;100.00;91361.75;4735597;30;20523;-77
2024/03/04 03:20:27;;;;;;;3.53;1.50;;;;;;;4.13;100.00;91363.09;4746657;30;20045;-78
2024/03/04 03:22:52;;;;;;;7.70;1.60;;;;;;;4.14;100.00;91380.97;4750332;30;20052;-79
2024/03/04 03:25:18;;;;;;;2.10;1.27;;;;;;;4.27;100.00;91400.25;4744570;30;20044;-79
2024/03/04 03:27:44;;;;;;;2.00;1.30;;;;;;;4.44;100.00;91404.25;4747662;30;20040;-78
2024/03/04 03:30:10;;;;;;;3.85;1.77;;;;;;;4.29;100.00;91408.53;4745853;30;20380;-79
2024/03/04 03:32:38;;;;;;;4.82;1.70;;;;;;;4.22;100.00;91404.72;4739638;30;20049;-78
2024/03/04 03:35:04;;;;;;;1.92;1.42;;;;;;;4.17;100.00;91408.91;4741107;30;20099;-79
2024/03/04 03:37:30;;;;;;;3.35;1.70;;;;;;;4.16;100.00;91401.38;4733388;30;20033;-79
2024/03/04 03:39:56;;;;;;;4.53;1.70;;;;;;;4.10;100.00;91405.84;4743449;30;20036;-79
2024/03/04 03:42:22;;;;;;;3.53;1.60;;;;;;;4.15;100.00;91398.03;4743183;30;20541;-79
2024/03/04 03:44:48;;;;;;;2.17;1.40;;;;;;;4.15;100.00;91397.25;4740799;30;20537;-79
2024/03/04 03:47:16;;;;;;;2.30;1.50;;;;;;;4.13;100.00;91396.75;4739935;30;20048;-79
2024/03/04 03:49:41;;;;;;;6.97;1.80;;;;;;;4.12;100.00;91402.97;4741492;30;20050;-78
2024/03/04 03:52:07;;;;;;;5.93;1.60;;;;;;;4.12;100.00;91402.97;4745532;30;20127;-79
2024/03/04 03:54:32;;;;;;;4.13;1.50;;;;;;;4.11;100.00;91396.25;4750482;30;20036;-79
2024/03/04 03:56:58;;;;;;;5.18;1.60;;;;;;;4.10;100.00;91400.66;4733129;30;20510;-79
2024/03/04 03:59:23;;;;;;;3.63;1.27;;;;;;;4.12;100.00;91408.94;4733737;30;20060;-79
2024/03/04 04:01:49;;;;;;;3.20;1.50;;;;;;;4.15;100.00;91407.63;4737406;30;20056;-78
2024/03/04 04:04:14;;;;;;;3.75;1.67;;;;;;;4.15;100.00;91405.03;4741219;30;20033;-79
2024/03/04 04:06:40;;;;;;;3.78;1.70;;;;;;;4.18;100.00;91404.47;4733109;30;20063;-79
2024/03/04 04:09:06;;;;;;;2.03;1.30;;;;;;;4.18;100.00;91400.06;4738837;30;20040;-79
2024/03/04 04:11:32;;;;;;;3.38;1.42;;;;;;;4.28;100.00;91409.59;4748596;30;20548;-79
2024/03/04 04:13:58;;;;;;;2.05;1.42;;;;;;;4.62;100.00;91411.31;4742709;30;20032;-78
2024/03/04 04:16:29;;;;;;;1.75;1.30;;;;;;;4.67;100.00;91413.09;4741348;30;20131;-78
2024/03/04 04:18:55;;;;;;;4.80;1.55;;;;;;;4.54;100.00;91409.31;4747873;30;20075;-79
2024/03/04 04:21:22;;;;;;;2.22;1.50;;;;;;;4.45;100.00;91409.16;4744227;30;20131;-78
2024/03/04 04:23:47;;;;;;;1.95;1.42;;;;;;;4.37;100.00;91420.91;4743053;30;20046;-79
2024/03/04 04:26:23;;;;;;;3.55;1.60;;;;;;;4.28;100.00;91417.34;4744781;30;20096;-79
2024/03/04 04:28:49;;;;;;;2.67;1.58;;;;;;;4.24;100.00;91421.53;4740304;30;20048;-79
2024/03/04 04:31:22;;;;;;;1.95;1.45;;;;;;;4.21;100.00;91427.25;4739917;30;20035;-79
2024/03/04 04:33:48;;;;;;;3.95;1.40;;;;;;;4.19;100.00;91429.34;4743642;30;20460;-79
2024/03/04 04:36:14;;;;;;;2.75;1.42;;;;;;;4.14;100.00;91426.78;4747074;30;20040;-79
2024/03/04 04:38:40;;;;;;;4.70;1.50;;;;;;;4.14;100.00;91421.59;4740107;30;20044;-78
2024/03/04 04:41:05;;;;;;;6.30;1.65;;;;;;;4.16;100.00;91435.06;4734829;30;20051;-79
2024/03/04 04:43:33;;;;;;;4.03;1.73;;;;;;;4.20;100.00;91445.66;4745924;30;20064;-78
2024/03/04 04:45:59;;;;;;;4.63;1.48;;;;;;;4.24;100.00;91450.03;4732912;30;20493;-79
2024/03/04 04:48:24;;;;;;;2.70;1.30;;;;;;;4.20;100.00;91441.25;4739649;30;20051;-79
2024/03/04 04:50:50;;;;;;;3.22;1.50;;;;;;;4.18;100.00;91448.50;4740352;30;20048;-79
2024/03/04 04:53:15;;;;;;;4.18;1.48;;;;;;;4.14;100.00;91447.50;4738745;30;20041;-79
2024/03/04 04:55:41;;;;;;;2.70;1.40;;;;;;;4.11;100.00;91446.22;4739943;30;20032;-79
2024/03/04 04:58:07;;;;;;;9.45;1.63;;;;;;;4.06;100.00;91446.28;4750710;30;20040;-79
2024/03/04 05:00:33;;;;;;;2.95;1.63;;;;;;;4.10;100.00;91446.53;4736113;30;20053;-79
2024/03/04 05:02:58;;;;;;;3.63;1.48;;;;;;;4.09;100.00;91445.72;4745773;30;20096;-78
2024/03/04 05:05:24;;;;;;;3.63;1.67;;;;;;;4.04;100.00;91442.41;4737604;30;20147;-76
2024/03/04 05:07:49;;;;;;;1.92;1.30;;;;;;;4.06;100.00;91440.34;4743634;30;20040;-79
2024/03/04 05:10:15;;;;;;;2.83;1.52;;;;;;;4.07;100.00;91444.47;4748830;30;20032;-80
2024/03/04 05:12:42;;;;;;;3.30;1.48;;;;;;;4.00;100.00;91439.59;4737216;30;20047;-78
2024/03/04 05:15:08;;;;;;;3.17;1.58;;;;;;;3.99;100.00;91445.81;4740321;30;20040;-79
2024/03/04 05:17:36;;;;;;;2.58;1.55;;;;;;;4.04;100.00;91450.19;4742140;30;20064;-79
2024/03/04 05:20:06;;;;;;;3.05;1.48;;;;;;;4.05;100.00;91449.91;4740889;30;20036;-79
2024/03/04 05:22:32;;;;;;;3.00;1.80;;;;;;;4.04;100.00;91456.13;4739728;30;20049;-79
2024/03/04 05:24:58;;;;;;;2.63;1.50;;;;;;;4.02;100.00;91447.88;4746641;30;20085;-80
2024/03/04 05:27:24;;;;;;;4.65;1.60;;;;;;;4.03;100.00;91448.63;4739925;30;20047;-78
2024/03/04 05:29:49;;;;;;;3.97;1.60;;;;;;;3.96;100.00;91449.72;4737870;30;20096;-80
2024/03/04 05:32:15;;;;;;;3.20;1.48;;;;;;;4.02;100.00;91466.00;4731340;30;20142;-79
2024/03/04 05:34:43;;;;;;;1.90;1.40;;;;;;;4.01;100.00;91474.03;4743872;30;20044;-79
2024/03/04 05:37:12;;;;;;;2.70;1.63;;;;;;;4.01;100.00;91474.03;4746997;30;20044;-79
2024/03/04 05:39:38;;;;;;;3.75;1.67;;;;;;;4.00;100.00;91477.66;4742433;30;20028;-79
2024/03/04 05:42:04;;;;;;;4.00;1.55;;;;;;;4.00;100.00;91480.25;4730694;30;20049;-79
2024/03/04 05:44:29;;;;;;;3.80;1.70;;;;;;;4.00;100.00;91472.50;4737848;30;20182;-79
2024/03/04 05:46:55;;;;;;;3.75;1.60;;;;;;;4.01;100.00;91479.19;4745664;30;20182;-80
2024/03/04 05:49:21;;;;;;;2.47;1.45;;;;;;;4.01;100.00;91492.94;4744101;30;20075;-81
2024/03/04 05:51:47;;;;;;;2.63;1.50;;;;;;;3.97;100.00;91491.94;4735995;30;20048;-81
2024/03/04 05:54:12;;;;;;;3.20;1.55;;;;;;;4.00;100.00;91498.38;4735265;30;20037;-79
2024/03/04 05:56:45;;;;;;;2.85;1.70;;;;;;;3.97;100.00;91495.28;4738414;30;20039;-79
2024/03/04 05:59:11;;;;;;;4.78;1.65;;;;;;;3.97;100.00;91505.66;4741117;30;20059;-79
2024/03/04 06:01:38;;;;;;;2.67;1.58;;;;;;;3.97;100.00;91495.28;4736169;30;20036;-79
2024/03/04 06:04:04;;;;;;;3.40;1.70;;;;;;;3.95;100.00;91491.44;4735596;30;20525;-80
2024/03/04 06:06:30;;;;;;;5.95;1.90;;;;;;;4.00;100.00;91501.75;4733995;30;20040;-79
2024/03/04 06:08:58;;;;;;;2.22;1.33;;;;;;;3.96;100.00;91483.41;4741976;30;20521;-79
2024/03/04 06:11:26;;;;;;;3.67;1.70;;;;;;;4.02;100.00;91486.72;4741693;30;20044;-80
2024/03/04 06:13:52;;;;;;;4.50;1.50;;;;;;;4.04;100.00;91505.34;4745374;30;20097;-78
2024/03/04 06:16:18;;;;;;;4.93;1.63;;;;;;;4.04;100.00;91504.56;4739452;30;20453;-78
2024/03/04 06:18:44;;;;;;;3.08;1.55;;;;;;;4.04;100.00;91502.75;4740128;30;20072;-78
2024/03/04 06:21:10;;;;;;;5.18;1.80;;;;;;;4.04;100.00;91512.34;4745393;30;20454;-79
2024/03/04 06:23:35;;;;;;;2.42;1.40;;;;;;;4.07;100.00;91514.38;4747161;30;20376;-79
2024/03/04 06:26:01;;;;;;;2.47;1.40;;;;;;;4.09;100.00;91523.44;4745714;30;20700;-79
2024/03/04 06:28:27;;;;;;;4.93;1.60;;;;;;;4.06;100.00;91507.69;4747916;30;20128;-79
2024/03/04 06:30:53;;;;;;;6.40;1.67;;;;;;;4.11;100.00;91513.56;4749842;30;20540;-80
2024/03/04 06:33:18;;;;;;;3.42;1.85;;;;;;;4.13;100.00;91521.09;4732977;30;20401;-80
2024/03/04 06:35:44;;;;;;;5.30;1.70;;;;;;;4.15;100.00;91527.53;4744671;30;20035;-79
2024/03/04 06:38:09;;;;;;;4.50;1.58;;;;;;;4.15;100.00;91527.53;4742515;30;20053;-79
2024/03/04 06:40:35;;;;;;;4.00;1.55;;;;;;;4.21;100.00;91527.50;4744405;30;20450;-80
2024/03/04 06:43:00;;;;;;;5.57;1.50;;;;;;;4.23;100.00;91523.59;4739623;30;20051;-80
2024/03/04 06:45:26;;;;;;;4.22;1.50;;;;;;;4.29;100.00;91526.94;4741308;30;20044;-80
2024/03/04 06:47:53;;;;;;;2.45;1.45;;;;;;;4.35;100.00;91531.81;4748657;30;20193;-78
2024/03/04 06:50:18;;;;;;;1.85;1.50;;;;;;;4.38;100.00;91538.25;4744641;30;20040;-79
2024/03/04 06:52:44;;;;;;;5.20;1.88;;;;;;;4.44;100.00;91539.00;4746819;30;20378;-80
2024/03/04 06:55:09;;;;;;;4.70;1.52;;;;;;;4.47;100.00;91538.47;4743615;30;20044;-79
2024/03/04 06:57:35;;;;;;;4.72;2.05;;;;;;;4.56;100.00;91547.19;4753741;30;20048;-79
2024/03/04 07:00:03;;;;;;;3.05;1.58;;;;;;;4.62;100.00;91548.72;4755038;30;20148;-79
2024/03/04 07:02:28;;;;;;;3.83;1.42;;;;;;;4.81;100.00;91556.56;4753222;30;20056;-80
2024/03/04 07:04:54;;;;;;;2.25;1.30;;;;;;;4.99;100.00;91549.94;4753946;30;20056;-79
2024/03/04 07:07:20;;;;;;;3.10;1.60;;;;;;;5.37;100.00;91561.22;4752291;30;20044;-79
2024/03/04 07:09:45;;;;;;;4.68;1.50;;;;;;;5.64;100.00;91555.47;4753565;30;20036;-81
2024/03/04 07:12:12;;;;;;;3.03;1.50;;;;;;;5.57;100.00;91555.03;4752569;30;20081;-79
2024/03/04 07:14:37;;;;;;;4.50;1.73;;;;;;;5.62;100.00;91556.78;4720926;30;20037;-79
2024/03/04 07:17:03;;;;;;;2.50;1.58;;;;;;;5.63;100.00;91547.97;4736394;30;20052;-80
2024/03/04 07:19:29;;;;;;;4.13;1.80;;;;;;;5.72;100.00;91559.28;4749107;30;20036;-78
2024/03/04 07:21:54;;;;;;;4.60;1.70;;;;;;;5.77;100.00;91555.84;4739870;30;20045;-78
2024/03/04 07:24:20;;;;;;;3.88;1.60;;;;;;;5.87;100.00;91563.50;4735724;30;20059;-79
2024/03/04 07:26:45;;;;;;;3.42;1.63;;;;;;;5.96;100.00;91561.06;4734082;30;20048;-78
2024/03/04 07:29:11;;;;;;;3.13;1.58;;;;;;;5.97;100.00;91566.00;4751166;30;20391;-78
2024/03/04 07:31:37;;;;;;;5.43;1.67;;;;;;;5.95;100.00;91570.69;4745781;30;20076;-78
2024/03/04 07:34:02;;;;;;;4.20;1.42;;;;;;;6.04;100.00;91576.81;4745269;30;20040;-81
2024/03/04 07:36:28;;;;;;;3.83;1.67;;;;;;;5.90;100.00;91573.34;4749783;30;20097;-79
2024/03/04 07:38:53;;;;;;;4.57;1.60;;;;;;;5.83;100.00;91567.69;4745159;30;20109;-78
2024/03/04 07:41:19;;;;;;;3.30;1.58;;;;;;;5.81;100.00;91562.78;4741733;30;20045;-81
2024/03/04 07:43:45;;;;;;;3.83;1.60;;;;;;;5.79;100.00;91577.88;4753734;30;20364;-78
2024/03/04 07:46:10;;;;;;;1.98;1.48;;;;;;;5.76;100.00;91573.22;4749544;30;20112;-79
2024/03/04 07:48:36;;;;;;;3.65;1.60;;;;;;;5.76;100.00;91578.41;4752114;30;20043;-79
2024/03/04 07:51:02;;;;;;;2.88;1.70;;;;;;;5.75;100.00;91586.50;4735451;30;20049;-79
2024/03/04 07:53:28;;;;;;;3.55;1.40;;;;;;;5.72;100.00;91589.63;4742710;30;20037;-79
2024/03/04 07:55:53;;;;;;;2.42;1.40;;;;;;;5.81;100.00;91598.38;4743451;30;20108;-79
2024/03/04 07:58:19;;;;;;;6.35;1.90;;;;;;;5.71;100.00;91596.66;4742618;30;20049;-79
2024/03/04 08:00:45;;;;;;;6.18;1.92;;;;;;;5.59;100.00;91586.69;4736543;30;20083;-78
2024/03/04 08:03:11;;;;;;;3.72;1.60;;;;;;;5.63;100.00;91600.66;4739464;30;20118;-80
2024/03/04 08:05:36;;;;;;;3.78;1.80;;;;;;;5.61;100.00;91602.75;4750690;30;20048;-80
2024/03/04 08:08:02;;;;;;;3.83;1.98;;;;;;;5.59;100.00;91599.66;4751608;30;20210;-80
2024/03/04 08:10:28;;;;;;;4.75;1.80;;;;;;;5.63;100.00;91600.66;4741888;30;20046;-80
2024/03/04 08:12:53;;;;;;;5.75;2.13;;;;;;;5.66;100.00;91593.38;4743571;30;20044;-77
2024/03/04 08:15:19;;;;;;;4.88;1.70;;;;;;;5.77;100.00;91602.59;4719242;30;20049;-80
2024/03/04 08:17:44;;;;;;;6.63;1.55;;;;;;;5.81;100.00;91601.75;4745111;30;20122;-80
2024/03/04 08:20:10;;;;;;;3.55;2.17;;;;;;;5.87;100.00;91597.25;4746282;30;20055;-80
2024/03/04 08:22:36;;;;;;;2.38;1.50;;;;;;;5.96;100.00;91597.44;4750688;30;20061;-79
2024/03/04 08:25:03;;;;;;;3.78;1.40;;;;;;;6.08;100.00;91602.22;4745771;30;20044;-78
2024/03/04 08:27:29;;;;;;;7.63;2.10;;;;;;;6.18;100.00;91604.72;4736835;30;20061;-79
2024/03/04 08:29:54;;;;;;;3.30;1.60;;;;;;;6.30;100.00;91602.44;4744104;30;20262;-80
2024/03/04 08:32:20;;;;;;;3.33;1.83;;;;;;;6.50;100.00;91611.81;4742945;30;20100;-79
2024/03/04 08:34:49;;;;;;;5.00;1.73;;;;;;;6.56;100.00;91612.50;4737665;30;20053;-79
2024/03/04 08:37:15;;;;;;;3.58;1.65;;;;;;;6.65;100.00;91616.03;4745540;30;20468;-79
2024/03/04 08:39:40;;;;;;;4.05;1.92;;;;;;;6.47;100.00;91602.75;4729368;30;20041;-78
2024/03/04 08:42:07;;;;;;;5.88;1.98;;;;;;;6.40;100.00;91589.31;4728033;30;20425;-80
2024/03/04 08:44:33;;;;;;;4.57;2.28;;;;;;;6.67;100.00;91611.31;4740145;30;20044;-80
2024/03/04 08:46:58;;;;;;;5.45;2.00;;;;;;;6.77;100.00;91615.56;4742376;30;20451;-79
2024/03/04 08:49:24;;;;;;;4.40;1.77;;;;;;;6.79;100.00;91623.88;4742502;30;20052;-79
2024/03/04 08:51:50;;;;;;;5.72;1.83;;;;;;;6.93;100.00;91629.88;4743402;30;20040;-80
2024/03/04 08:54:16;;;;;;;2.90;1.73;;;;;;;6.80;100.00;91635.81;4754959;30;20097;-79
2024/03/04 08:56:43;;;;;;;4.47;2.42;;;;;;;6.47;100.00;91639.13;4746610;30;20032;-80
2024/03/04 08:59:09;;;;;;;3.63;2.10;;;;;;;6.50;100.00;91637.03;4746494;30;20536;-79
2024/03/04 09:01:34;;;;;;;4.55;2.55;;;;;;;6.46;100.00;91635.00;4747014;30;20144;-79
2024/03/04 09:04:00;;;;;;;4.10;2.08;;;;;;;6.60;100.00;91644.72;4734283;30;20048;-79
2024/03/04 09:06:25;;;;;;;3.50;1.50;;;;;;;6.63;100.00;91642.31;4731862;30;20036;-79
2024/03/04 09:08:51;;;;;;;3.08;1.88;;;;;;;6.72;100.00;91645.03;4744296;30;20072;-79
2024/03/04 09:11:18;;;;;;;4.53;2.05;;;;;;;6.83;100.00;91649.03;4740813;30;20044;-79
2024/03/04 09:13:44;;;;;;;3.00;1.75;;;;;;;6.93;100.00;91642.13;4754607;30;20040;-79
2024/03/04 09:16:10;;;;;;;3.58;1.80;;;;;;;7.12;100.00;91657.72;4752240;30;20033;-79
2024/03/04 09:18:39;;;;;;;5.95;1.55;;;;;;;7.25;100.00;91652.56;4736527;30;20561;-79
2024/03/04 09:21:06;;;;;;;2.95;1.60;;;;;;;7.45;100.00;91659.28;4754087;30;20375;-79
2024/03/04 09:23:32;;;;;;;2.42;1.50;;;;;;;7.60;100.00;91667.88;4753480;30;20048;-79
2024/03/04 09:25:57;;;;;;;4.30;1.98;;;;;;;7.78;100.00;91679.28;4735987;30;20067;-80
2024/03/04 09:28:23;;;;;;;2.97;1.70;;;;;;;7.70;100.00;91678.88;4740677;30;20044;-79
2024/03/04 09:30:48;;;;;;;3.10;1.75;;;;;;;7.72;100.00;91687.19;4751808;30;20405;-80
2024/03/04 09:33:14;;;;;;;3.75;1.80;;;;;;;7.81;100.00;91689.13;4740644;30;20044;-79
2024/03/04 09:35:40;;;;;;;4.30;1.75;;;;;;;7.81;100.00;91686.50;4737454;30;20048;-79
2024/03/04 09:38:09;;;;;;;4.15;2.00;;;;;;;7.79;100.00;91691.22;4738975;30;20048;-79
2024/03/04 09:40:39;;;;;;;5.63;2.15;;;;;;;8.10;100.00;91689.59;4752695;30;20225;-78
2024/03/04 09:43:09;;;;;;;5.22;2.03;;;;;;;8.31;100.00;91681.44;4745965;30;20536;-78
2024/03/04 09:45:36;;;;;;;8.05;2.70;;;;;;;8.61;100.00;91684.50;4756693;30;20096;-79
2024/03/04 09:48:02;;;;;;;4.00;1.90;;;;;;;8.69;100.00;91689.00;4738239;30;20122;-79
2024/03/04 09:50:28;;;;;;;4.05;2.50;;;;;;;8.55;100.00;91689.81;4739649;30;20052;-79
2024/03/04 09:52:58;;;;;;;3.65;2.10;;;;;;;8.69;100.00;91691.63;4749326;30;20070;-78
2024/03/04 09:55:23;;;;;;;6.00;3.28;;;;;;;8.88;100.00;91689.66;4736764;30;20037;-79
2024/03/04 09:57:49;;;;;;;4.55;2.15;;;;;;;9.20;100.00;91692.34;4722049;30;20049;-79
2024/03/04 10:00:15;;;;;;;4.93;1.85;;;;;;;9.27;100.00;91683.03;4722296;30;20057;-79
2024/03/04 10:02:41;;;;;;;4.50;2.33;;;;;;;9.49;100.00;91691.94;4722172;30;20510;-80
2024/03/04 10:05:09;;;;;;;2.60;1.52;;;;;;;9.48;100.00;91696.41;4723986;30;20025;-79
2024/03/04 10:07:36;;;;;;;3.88;1.73;;;;;;;9.44;100.00;91700.66;4753038;30;20564;-79
2024/03/04 10:10:02;;;;;;;3.75;2.28;;;;;;;9.09;100.00;91705.63;4749933;30;20099;-80
2024/03/04 10:12:28;;;;;;;3.38;1.75;;;;;;;8.94;100.00;91704.13;4755557;30;20047;-79
2024/03/04 10:14:59;;;;;;;3.55;1.90;;;;;;;9.06;100.00;91702.84;4757211;30;20028;-79
2024/03/04 10:17:26;;;;;;;2.20;1.60;;;;;;;9.12;100.00;91707.66;4741868;30;20050;-79
2024/03/04 10:20:01;;;;;;;3.58;1.52;;;;;;;9.04;100.00;91707.59;4739813;30;20029;-79
2024/03/04 10:22:33;;;;;;;6.22;3.47;;;;;;;9.11;100.00;91713.16;4749004;30;20040;-79
2024/03/04 10:25:07;;;;;;;4.38;2.40;;;;;;;9.26;100.00;91718.06;4748511;30;20394;-79
2024/03/04 10:27:35;;;;;;;4.88;2.00;;;;;;;9.36;100.00;91720.41;4749556;30;20036;-79
2024/03/04 10:30:14;;;;;;;4.78;1.95;;;;;;;9.40;100.00;91714.63;4740612;30;20035;-79
2024/03/04 10:32:47;;;;;;;2.97;1.73;;;;;;;9.89;100.00;91710.31;4750798;30;20041;-79
2024/03/04 10:35:15;;;;;;;3.65;1.70;;;;;;;9.99;100.00;91712.66;4743846;30;20112;-80
2024/03/04 10:37:40;;;;;;;5.38;1.77;;;;;;;10.16;100.00;91707.50;4746573;30;20034;-80
2024/03/04 10:40:11;;;;;;;6.80;2.10;;;;;;;10.36;100.00;91715.91;4756250;30;20454;-79
2024/03/04 10:42:39;;;;;;;5.43;1.83;;;;;;;10.25;100.00;91706.78;4736883;30;20056;-79
2024/03/04 10:45:06;;;;;;;2.72;1.67;;;;;;;9.95;100.00;91709.88;4740821;30;20047;-79
2024/03/04 10:47:32;;;;;;;2.83;1.75;;;;;;;9.90;100.00;91715.22;4749448;30;20464;-79
2024/03/04 10:49:58;;;;;;;6.05;2.17;;;;;;;9.97;100.00;91712.16;4742702;30;20036;-80
2024/03/04 10:52:24;;;;;;;5.32;2.28;;;;;;;9.89;100.00;91705.84;4742056;30;20040;-79
2024/03/04 10:54:50;;;;;;;5.00;1.38;;;;;;;9.87;100.00;91702.00;4749781;30;20024;-79
2024/03/04 10:57:34;;;;;;;3.13;1.90;;;;;;;10.07;100.00;91716.38;4751655;30;20181;-79
2024/03/04 11:00:10;;;;;;;2.03;1.40;;;;;;;10.09;100.00;91716.88;4742597;30;20102;-79
2024/03/04 11:02:59;;;;;;;2.78;1.50;;;;;;;9.87;100.00;91712.44;4747125;30;20450;-78
2024/03/04 11:05:27;;;;;;;3.17;1.63;;;;;;;10.24;100.00;91715.69;4744393;30;20102;-80
2024/03/04 11:08:07;;;;;;;5.80;1.80;;;;;;;10.63;100.00;91715.69;4752391;30;20040;-79
2024/03/04 11:11:01;;;;;;;3.55;1.60;;;;;;;10.50;100.00;91710.56;4739295;30;20049;-77
2024/03/04 11:13:43;;;;;;;3.35;1.65;;;;;;;10.81;100.00;91719.09;4719303;30;20040;-78
2024/03/04 11:16:30;;;;;;;2.20;1.50;;;;;;;10.81;100.00;91721.72;4752057;30;20056;-79
2024/03/04 11:19:14;;;;;;;3.65;1.80;;;;;;;11.12;100.00;91714.81;4751753;30;20755;-77
2024/03/04 11:21:41;;;;;;;3.67;1.70;;;;;;;11.35;100.00;91710.97;4740655;30;20067;-78
2024/03/04 11:24:08;;;;;;;1.90;1.33;;;;;;;11.11;100.00;91715.91;4745440;30;20032;-77
2024/03/04 11:26:37;;;;;;;3.83;1.90;;;;;;;10.64;100.00;91713.81;4753113;30;20502;-78
2024/03/04 11:29:04;;;;;;;5.20;1.70;;;;;;;11.27;100.00;91708.34;4750944;30;20032;-78
2024/03/04 11:31:33;;;;;;;6.60;2.10;;;;;;;11.79;100.00;91711.69;4753250;30;20040;-78
2024/03/04 11:34:02;;;;;;;6.43;1.92;;;;;;;12.03;100.00;91707.81;4734522;30;20139;-78